Time,TemperatureF,DewpointF,PressureIn,WindDirection,WindDirectionDegrees,WindSpeedMPH,WindSpeedGustMPH,Humidity,HourlyPrecipIn,Conditions,Clouds,dailyrainin,SoftwareType,DateUTC
2013-09-28 00:00:00,69.0,-99.9,-100.00,SSE,159,8.0,11.0,-999,0.00,,,0.00,,2013-09-28 05:00:00,
2013-09-28 00:43:00,69.0,-99.9,-100.00,SSE,159,8.0,11.0,-999,0.00,,,0.00,,2013-09-28 05:43:00,
2013-09-28 00:53:00,69.0,-99.9,-100.00,SSE,159,8.0,11.0,-999,0.00,,,0.00,,2013-09-28 05:53:00,
2013-09-28 01:00:00,68.0,-99.9,-100.00,SE,146,8.0,11.0,-999,0.00,,,0.00,,2013-09-28 06:00:00,
2013-09-28 01:42:00,68.0,-99.9,-100.00,SE,146,8.0,11.0,-999,0.00,,,0.00,,2013-09-28 06:42:00,
2013-09-28 01:52:00,68.0,-99.9,-100.00,SE,146,8.0,11.0,-999,0.00,,,0.00,,2013-09-28 06:52:00,
2013-09-28 02:00:00,68.0,-99.9,-100.00,SSE,151,8.0,13.0,-999,0.00,,,0.00,,2013-09-28 07:00:00,
2013-09-28 02:42:00,68.0,-99.9,-100.00,SSE,151,8.0,13.0,-999,0.00,,,0.00,,2013-09-28 07:42:00,
2013-09-28 02:52:00,68.0,-99.9,-100.00,SSE,151,8.0,13.0,-999,0.00,,,0.00,,2013-09-28 07:52:00,
2013-09-28 03:00:00,67.0,-99.9,-100.00,SSE,157,6.0,10.0,-999,0.00,,,0.00,,2013-09-28 08:00:00,
2013-09-28 03:43:00,67.0,-99.9,-100.00,SSE,157,6.0,10.0,-999,0.00,,,0.00,,2013-09-28 08:43:00,
2013-09-28 03:53:00,67.0,-99.9,-100.00,SSE,157,6.0,10.0,-999,0.00,,,0.00,,2013-09-28 08:53:00,
2013-09-28 04:00:00,67.0,-99.9,-100.00,SSE,157,7.0,12.0,-999,0.00,,,0.00,,2013-09-28 09:00:00,
2013-09-28 04:43:00,67.0,-99.9,-100.00,SSE,157,7.0,12.0,-999,0.00,,,0.00,,2013-09-28 09:43:00,
2013-09-28 04:54:00,67.0,-99.9,-100.00,SSE,157,7.0,12.0,-999,0.00,,,0.00,,2013-09-28 09:54:00,
2013-09-28 05:00:00,67.0,-99.9,-100.00,SSE,154,6.0,11.0,-999,0.00,,,0.00,,2013-09-28 10:00:00,
2013-09-28 05:43:00,67.0,-99.9,-100.00,SSE,154,6.0,11.0,-999,0.00,,,0.00,,2013-09-28 10:43:00,
2013-09-28 05:53:00,67.0,-99.9,-100.00,SSE,154,6.0,11.0,-999,0.00,,,0.00,,2013-09-28 10:53:00,
2013-09-28 06:00:00,68.0,-99.9,-100.00,SSE,154,9.0,14.0,-999,0.00,,,0.00,,2013-09-28 11:00:00,
2013-09-28 06:43:00,68.0,-99.9,-100.00,SSE,154,9.0,14.0,-999,0.00,,,0.00,,2013-09-28 11:43:00,
2013-09-28 06:52:00,68.0,-99.9,-100.00,SSE,154,9.0,14.0,-999,0.00,,,0.00,,2013-09-28 11:52:00,
2013-09-28 07:00:00,68.0,-99.9,-100.00,SSE,158,9.0,14.0,-999,0.00,,,0.00,,2013-09-28 12:00:00,
2013-09-28 07:52:00,68.0,-99.9,-100.00,SSE,158,9.0,14.0,-999,0.00,,,0.00,,2013-09-28 12:52:00,
2013-09-28 08:00:00,68.0,-99.9,-100.00,SSE,159,8.0,16.0,-999,0.00,,,0.00,,2013-09-28 13:00:00,
2013-09-28 08:42:00,68.0,-99.9,-100.00,SSE,159,8.0,16.0,-999,0.00,,,0.00,,2013-09-28 13:42:00,
2013-09-28 08:52:00,68.0,-99.9,-100.00,SSE,159,8.0,16.0,-999,0.00,,,0.00,,2013-09-28 13:52:00,
2013-09-28 09:00:00,66.0,-99.9,-100.00,South,169,6.0,10.0,-999,0.04,,,0.04,,2013-09-28 14:00:00,
2013-09-28 09:42:00,66.0,-99.9,-100.00,South,169,6.0,10.0,-999,0.04,,,0.04,,2013-09-28 14:42:00,
2013-09-28 09:52:00,66.0,-99.9,-100.00,South,169,6.0,10.0,-999,0.04,,,0.04,,2013-09-28 14:52:00,
2013-09-28 10:00:00,68.0,-99.9,-100.00,South,175,8.0,20.0,-999,0.01,,,0.05,,2013-09-28 15:00:00,
2013-09-28 10:44:00,68.0,-99.9,-100.00,South,175,8.0,20.0,-999,0.01,,,0.05,,2013-09-28 15:44:00,
2013-09-28 10:54:00,68.0,-99.9,-100.00,South,175,8.0,20.0,-999,0.01,,,0.05,,2013-09-28 15:54:00,
2013-09-28 11:00:00,69.0,-99.9,-100.00,South,182,8.0,14.0,-999,0.00,,,0.05,,2013-09-28 16:00:00,
2013-09-28 11:43:00,69.0,-99.9,-100.00,South,182,8.0,14.0,-999,0.00,,,0.05,,2013-09-28 16:43:00,
2013-09-28 11:54:00,69.0,-99.9,-100.00,South,182,8.0,14.0,-999,0.00,,,0.05,,2013-09-28 16:54:00,
2013-09-28 12:00:00,68.0,-99.9,-100.00,South,185,6.0,11.0,-999,0.02,,,0.07,,2013-09-28 17:00:00,
2013-09-28 12:43:00,68.0,-99.9,-100.00,South,185,6.0,11.0,-999,0.02,,,0.07,,2013-09-28 17:43:00,
2013-09-28 12:52:00,68.0,-99.9,-100.00,South,185,6.0,11.0,-999,0.02,,,0.07,,2013-09-28 17:52:00,
2013-09-28 13:00:00,67.0,-99.9,-100.00,SSW,212,5.0,9.0,-999,0.02,,,0.09,,2013-09-28 18:00:00,
2013-09-28 13:42:00,67.0,-99.9,-100.00,SSW,212,5.0,9.0,-999,0.02,,,0.09,,2013-09-28 18:42:00,
2013-09-28 13:52:00,67.0,-99.9,-100.00,SSW,212,5.0,9.0,-999,0.02,,,0.09,,2013-09-28 18:52:00,
2013-09-28 15:00:00,57.0,-99.9,-100.00,WNW,290,3.0,9.0,-999,0.02,,,0.15,,2013-09-28 20:00:00,
2013-09-28 15:43:00,57.0,-99.9,-100.00,WNW,290,3.0,9.0,-999,0.02,,,0.15,,2013-09-28 20:43:00,
2013-09-28 15:53:00,57.0,-99.9,-100.00,WNW,290,3.0,9.0,-999,0.02,,,0.15,,2013-09-28 20:53:00,
2013-09-28 16:00:00,58.0,-99.9,-100.00,NNW,329,3.0,8.0,-999,0.00,,,0.15,,2013-09-28 21:00:00,
2013-09-28 16:44:00,58.0,-99.9,-100.00,NNW,329,3.0,8.0,-999,0.00,,,0.15,,2013-09-28 21:44:00,
2013-09-28 16:55:00,58.0,-99.9,-100.00,NNW,329,3.0,8.0,-999,0.00,,,0.15,,2013-09-28 21:55:00,
2013-09-28 17:00:00,60.0,-99.9,-100.00,NW,309,3.0,13.0,-999,0.00,,,0.15,,2013-09-28 22:00:00,
2013-09-28 17:43:00,60.0,-99.9,-100.00,NW,309,3.0,13.0,-999,0.00,,,0.15,,2013-09-28 22:43:00,
2013-09-28 17:54:00,60.0,-99.9,-100.00,NW,309,3.0,13.0,-999,0.00,,,0.15,,2013-09-28 22:54:00,
2013-09-28 18:00:00,61.0,-99.9,-100.00,NNW,328,2.0,9.0,-999,0.00,,,0.15,,2013-09-28 23:00:00,
2013-09-28 18:43:00,61.0,-99.9,-100.00,NNW,328,2.0,9.0,-999,0.00,,,0.15,,2013-09-28 23:43:00,
2013-09-28 18:53:00,61.0,-99.9,-100.00,NNW,328,2.0,9.0,-999,0.00,,,0.15,,2013-09-28 23:53:00,
2013-09-28 19:00:00,58.0,-99.9,-100.00,WNW,297,1.0,3.0,-999,0.00,,,0.15,,2013-09-29 00:00:00,
2013-09-28 19:43:00,58.0,-99.9,-100.00,WNW,297,1.0,3.0,-999,0.00,,,0.15,,2013-09-29 00:43:00,
2013-09-28 19:52:00,58.0,-99.9,-100.00,WNW,297,1.0,3.0,-999,0.00,,,0.15,,2013-09-29 00:52:00,
2013-09-28 20:00:00,56.0,-99.9,-100.00,South,179,1.0,4.0,-999,0.00,,,0.15,,2013-09-29 01:00:00,
2013-09-28 20:43:00,56.0,-99.9,-100.00,South,179,1.0,4.0,-999,0.00,,,0.15,,2013-09-29 01:43:00,
2013-09-28 20:52:00,56.0,-99.9,-100.00,South,179,1.0,4.0,-999,0.00,,,0.15,,2013-09-29 01:52:00,
2013-09-28 21:00:00,55.0,-99.9,-100.00,South,185,1.0,3.0,-999,0.00,,,0.15,,2013-09-29 02:00:00,
2013-09-28 21:43:00,55.0,-99.9,-100.00,South,185,1.0,3.0,-999,0.00,,,0.15,,2013-09-29 02:43:00,
2013-09-28 21:53:00,55.0,-99.9,-100.00,South,185,1.0,3.0,-999,0.00,,,0.15,,2013-09-29 02:53:00,
2013-09-28 22:00:00,-999.0,-99.9,-100.00,SSW,202,2.0,4.0,-999,-99.99,,,-99.99,,2013-09-29 03:00:00,
2013-09-28 22:44:00,55.0,-99.9,-100.00,SSW,202,2.0,4.0,-999,0.00,,,-99.99,,2013-09-29 03:44:00,
2013-09-28 22:55:00,55.0,-99.9,-100.00,SSW,202,2.0,4.0,-999,0.00,,,-99.99,,2013-09-29 03:55:00,
2013-09-28 23:00:00,54.0,-99.9,-100.00,SSW,211,2.0,6.0,-999,0.00,,,0.15,,2013-09-29 04:00:00,
2013-09-28 23:44:00,54.0,-99.9,-100.00,SSW,211,2.0,6.0,-999,0.00,,,0.15,,2013-09-29 04:44:00,
2013-09-28 23:54:00,54.0,-99.9,-100.00,SSW,211,2.0,6.0,-999,0.00,,,0.15,,2013-09-29 04:54:00,